createdAt,value
2023-01-07T00:00:30.249Z,12.80
2023-01-07T00:05:38.911Z,13.00
2023-01-07T00:10:47.252Z,10.50
2023-01-07T00:16:00.653Z,12.50
2023-01-07T00:21:11.990Z,11.40
2023-01-07T00:26:22.198Z,14.20
2023-01-07T00:31:32.213Z,13.70
2023-01-07T00:36:44.075Z,15.30
2023-01-07T00:42:11.010Z,15.00
2023-01-07T00:47:18.687Z,11.30
2023-01-07T00:52:27.442Z,12.00
2023-01-07T00:57:36.086Z,17.00
2023-01-07T01:02:44.378Z,11.80
2023-01-07T01:07:53.425Z,10.20
2023-01-07T01:13:02.454Z,13.10
2023-01-07T01:18:10.784Z,10.70
2023-01-07T01:23:19.282Z,13.10
2023-01-07T01:28:27.683Z,15.00
2023-01-07T01:33:35.467Z,13.10
2023-01-07T01:38:44.414Z,12.70
2023-01-07T01:43:53.180Z,13.60
2023-01-07T01:49:06.272Z,12.40
2023-01-07T01:54:18.156Z,12.70
2023-01-07T01:59:31.961Z,12.70
2023-01-07T02:04:40.960Z,13.90
2023-01-07T02:09:53.029Z,13.70
2023-01-07T02:15:12.816Z,12.90
2023-01-07T02:20:41.333Z,13.30
2023-01-07T02:26:13.899Z,12.10
2023-01-07T02:36:59.622Z,11.50
2023-01-07T02:42:17.611Z,12.50
2023-01-07T02:47:31.396Z,12.70
2023-01-07T02:52:41.335Z,16.00
2023-01-07T02:58:34.429Z,13.90
2023-01-07T03:04:06.111Z,13.50
2023-01-07T03:09:20.075Z,15.60
2023-01-07T03:14:36.230Z,10.10
2023-01-07T03:19:52.343Z,12.50
2023-01-07T03:25:01.717Z,13.60
2023-01-07T03:30:15.234Z,14.60
2023-01-07T03:35:25.326Z,15.30
2023-01-07T03:40:34.290Z,16.00
2023-01-07T03:45:43.831Z,21.70
2023-01-07T03:50:52.527Z,13.70
2023-01-07T03:56:01.602Z,12.10
2023-01-07T04:01:11.218Z,19.90
2023-01-07T04:06:19.560Z,18.60
2023-01-07T04:11:28.496Z,21.40
2023-01-07T04:16:38.580Z,19.80
2023-01-07T04:21:47.688Z,18.30
2023-01-07T04:26:56.458Z,19.20
2023-01-07T04:32:05.613Z,21.40
2023-01-07T04:37:14.298Z,22.60
2023-01-07T04:42:22.643Z,19.70
2023-01-07T04:47:31.601Z,22.50
2023-01-07T04:52:40.864Z,19.90
2023-01-07T04:57:50.150Z,19.70
2023-01-07T05:02:58.818Z,23.20
2023-01-07T05:08:08.350Z,23.30
2023-01-07T05:13:21.265Z,23.60
2023-01-07T05:18:31.084Z,26.80
2023-01-07T05:23:40.419Z,23.00
2023-01-07T05:28:50.219Z,32.50
2023-01-07T05:33:59.482Z,36.80
2023-01-07T05:39:08.438Z,23.80
2023-01-07T05:44:17.005Z,26.30
2023-01-07T05:49:25.279Z,32.80
2023-01-07T05:54:33.805Z,29.10
2023-01-07T05:59:42.482Z,33.00
2023-01-07T06:04:50.723Z,30.30
2023-01-07T06:10:01.815Z,27.00
2023-01-07T06:15:12.755Z,37.60
2023-01-07T06:20:21.313Z,34.00
2023-01-07T06:25:29.656Z,32.90
2023-01-07T06:30:38.057Z,37.00
2023-01-07T06:35:48.855Z,25.80
2023-01-07T06:40:59.207Z,33.20
2023-01-07T06:46:08.052Z,36.40
2023-01-07T06:51:16.809Z,33.00
2023-01-07T06:56:26.165Z,38.80
2023-01-07T07:01:35.043Z,31.90
2023-01-07T07:06:43.494Z,26.20
2023-01-07T07:11:51.709Z,32.50
2023-01-07T07:16:59.865Z,34.30
2023-01-07T07:22:08.208Z,33.20
2023-01-07T07:27:16.428Z,32.90
2023-01-07T07:32:29.049Z,41.80
2023-01-07T07:37:38.036Z,44.50
2023-01-07T07:43:10.519Z,35.70
2023-01-07T07:48:16.905Z,34.30
2023-01-07T07:53:25.222Z,27.20
2023-01-07T07:58:33.547Z,27.20
2023-01-07T08:03:42.356Z,30.40
2023-01-07T08:08:50.640Z,28.00
2023-01-07T08:13:59.038Z,31.10
2023-01-07T08:19:07.541Z,31.10
2023-01-07T08:24:16.263Z,26.80
2023-01-07T08:29:24.619Z,29.50
2023-01-07T08:34:32.945Z,28.80
2023-01-07T08:39:41.822Z,31.10
2023-01-07T08:44:50.795Z,27.20
2023-01-07T08:49:59.070Z,38.90
2023-01-07T08:55:08.265Z,35.30
2023-01-07T09:00:19.213Z,39.50
2023-01-07T09:05:27.902Z,35.20
2023-01-07T09:10:36.417Z,40.90
2023-01-07T09:15:45.676Z,32.70
2023-01-07T09:20:54.204Z,36.40
2023-01-07T09:26:03.028Z,31.80
2023-01-07T09:31:12.635Z,30.10
2023-01-07T09:36:20.927Z,30.80
2023-01-07T09:41:40.977Z,29.00
2023-01-07T09:46:49.939Z,27.40
2023-01-07T09:52:06.063Z,33.80
2023-01-07T09:57:19.463Z,39.00
2023-01-07T10:02:41.155Z,36.60
2023-01-07T10:08:31.133Z,36.50
2023-01-07T10:13:55.060Z,33.20
2023-01-07T10:19:14.544Z,35.00
2023-01-07T10:24:27.984Z,38.60
2023-01-07T10:29:41.880Z,39.90
2023-01-07T10:34:51.959Z,39.80
2023-01-07T10:40:23.338Z,39.00
2023-01-07T10:45:52.349Z,36.60
2023-01-07T10:51:41.375Z,42.20
2023-01-07T10:56:58.584Z,38.20
2023-01-07T11:02:18.212Z,34.50
2023-01-07T11:07:36.497Z,39.10
2023-01-07T11:12:50.457Z,40.00
2023-01-07T11:18:02.971Z,35.90
2023-01-07T11:23:34.697Z,40.70
2023-01-07T11:28:49.944Z,33.00
2023-01-07T11:34:02.651Z,39.80
2023-01-07T11:39:21.152Z,36.80
2023-01-07T11:44:29.940Z,35.90
2023-01-07T11:49:45.844Z,38.90
2023-01-07T11:54:57.159Z,40.80
2023-01-07T12:00:17.964Z,30.60
2023-01-07T12:05:29.451Z,32.40
2023-01-07T12:10:40.496Z,32.70
2023-01-07T12:15:54.870Z,29.40
2023-01-07T12:21:45.111Z,37.50
2023-01-07T12:26:57.577Z,38.00
2023-01-07T12:32:18.658Z,38.80
2023-01-07T12:37:36.069Z,40.70
2023-01-07T12:42:51.910Z,37.70
2023-01-07T12:48:04.350Z,31.50
2023-01-07T12:53:22.101Z,40.10
2023-01-07T12:58:49.197Z,38.90
2023-01-07T13:04:11.745Z,38.30
2023-01-07T13:09:33.794Z,39.40
2023-01-07T13:14:47.685Z,45.30
2023-01-07T13:19:59.269Z,50.20
2023-01-07T13:25:22.672Z,46.80
2023-01-07T13:30:42.325Z,37.00
2023-01-07T13:36:06.181Z,40.50
2023-01-07T13:41:28.891Z,36.40
2023-01-07T13:46:41.603Z,32.50
2023-01-07T13:51:50.060Z,44.10
2023-01-07T13:56:59.158Z,38.70
2023-01-07T14:02:23.801Z,44.00
2023-01-07T14:07:32.942Z,41.40
2023-01-07T14:13:07.743Z,41.20
2023-01-07T14:18:42.309Z,39.80
2023-01-07T14:24:03.653Z,36.10
2023-01-07T14:29:39.771Z,36.20
2023-01-07T14:34:59.052Z,36.80
2023-01-07T14:40:59.730Z,40.10
2023-01-07T14:46:09.028Z,42.70
2023-01-07T14:51:37.379Z,61.80
2023-01-07T14:56:59.029Z,49.80
2023-01-07T15:08:27.246Z,44.90
2023-01-07T15:14:00.557Z,44.70
2023-01-07T15:19:12.093Z,44.90
2023-01-07T15:24:31.771Z,49.40
2023-01-07T15:29:50.401Z,44.50
2023-01-07T15:34:58.711Z,47.20
2023-01-07T15:40:09.157Z,43.70
2023-01-07T15:45:21.852Z,45.00
2023-01-07T15:50:41.345Z,43.90
2023-01-07T15:55:58.176Z,45.20
2023-01-07T16:01:08.891Z,47.00
2023-01-07T16:06:36.229Z,46.70
2023-01-07T16:11:45.300Z,41.50
2023-01-07T16:17:14.319Z,49.00
2023-01-07T16:22:24.648Z,53.00
2023-01-07T16:27:34.299Z,50.50
2023-01-07T16:32:43.509Z,46.70
2023-01-07T16:37:54.240Z,61.40
2023-01-07T16:43:00.609Z,61.40
2023-01-07T16:48:23.130Z,58.90
2023-01-07T16:53:35.538Z,55.90
2023-01-07T16:58:50.237Z,55.40
2023-01-07T17:04:01.549Z,57.50
2023-01-07T17:09:23.452Z,49.40
2023-01-07T17:14:54.115Z,57.90
2023-01-07T17:20:20.327Z,49.30
2023-01-07T17:25:29.927Z,51.60
2023-01-07T17:30:39.174Z,51.80
2023-01-07T17:35:50.276Z,48.50
2023-01-07T17:40:58.797Z,49.50
2023-01-07T17:46:09.733Z,47.80
2023-01-07T17:51:18.497Z,48.30
2023-01-07T17:56:27.654Z,50.00
2023-01-07T18:01:36.077Z,55.10
2023-01-07T18:06:45.655Z,47.90
2023-01-07T18:12:13.138Z,44.80
2023-01-07T18:17:22.058Z,51.00
2023-01-07T18:22:30.613Z,47.70
2023-01-07T18:27:38.763Z,51.80
2023-01-07T18:32:48.641Z,51.00
2023-01-07T18:37:58.588Z,51.60
2023-01-07T18:43:07.084Z,50.30
2023-01-07T18:48:17.150Z,45.50
2023-01-07T18:53:27.842Z,46.90
2023-01-07T18:58:36.342Z,48.30
2023-01-07T19:03:44.596Z,45.60
2023-01-07T19:08:52.663Z,41.20
2023-01-07T19:14:01.015Z,47.10
2023-01-07T19:19:09.515Z,42.00
2023-01-07T19:24:17.545Z,41.20
2023-01-07T19:29:25.754Z,39.00
2023-01-07T19:34:34.396Z,43.70
2023-01-07T19:39:42.739Z,45.20
2023-01-07T19:44:51.441Z,41.80
2023-01-07T19:50:00.223Z,48.00
2023-01-07T19:55:09.897Z,40.10
2023-01-07T20:00:18.806Z,46.50
2023-01-07T20:05:29.498Z,43.30
2023-01-07T20:10:37.839Z,43.50
2023-01-07T20:15:46.212Z,44.00
2023-01-07T20:21:01.618Z,45.00
2023-01-07T20:26:11.380Z,40.60
2023-01-07T20:31:21.672Z,39.50
2023-01-07T20:36:32.951Z,40.30
2023-01-07T20:41:41.509Z,47.60
2023-01-07T20:46:49.915Z,46.10
2023-01-07T20:51:58.188Z,48.70
2023-01-07T20:57:06.967Z,50.00
2023-01-07T21:02:18.736Z,53.20
2023-01-07T21:07:27.750Z,46.90
2023-01-07T21:12:36.265Z,45.90
2023-01-07T21:17:45.263Z,45.50
2023-01-07T21:22:54.186Z,53.70
2023-01-07T21:28:03.589Z,46.60
2023-01-07T21:33:11.885Z,47.40
2023-01-07T21:38:20.672Z,49.00
2023-01-07T21:43:29.409Z,42.70
2023-01-07T21:48:39.834Z,43.60
2023-01-07T21:53:48.377Z,46.40
2023-01-07T21:58:57.427Z,45.80
2023-01-07T22:04:05.845Z,45.50
2023-01-07T22:09:17.710Z,40.60
2023-01-07T22:14:26.683Z,47.60
2023-01-07T22:19:35.958Z,40.80
2023-01-07T22:24:45.409Z,46.80
2023-01-07T22:29:55.481Z,45.00
2023-01-07T22:35:03.896Z,46.30
2023-01-07T22:40:14.604Z,44.80
2023-01-07T22:45:33.739Z,48.20
2023-01-07T22:50:42.852Z,41.60
2023-01-07T22:55:51.228Z,49.50
2023-01-07T23:01:14.992Z,48.90
2023-01-07T23:06:23.324Z,44.40
2023-01-07T23:11:52.487Z,44.90
2023-01-07T23:17:01.099Z,43.50
2023-01-07T23:22:09.273Z,42.60
2023-01-07T23:27:19.307Z,43.90
2023-01-07T23:32:29.196Z,42.30
2023-01-07T23:37:37.514Z,43.70
2023-01-07T23:42:50.212Z,39.30
2023-01-07T23:47:58.795Z,44.50
2023-01-07T23:53:07.494Z,44.80
2023-01-07T23:58:16.181Z,42.50
